world map with LTFH marked

LTFH - Airport

This information may not be accurate or current and is not valid for navigation or flight planning. No warranty of fitness for any purpose is made or implied.

flag of Turkey

Donate via PayPal

Additional information is available on the NEW Great Circle Mapper

Location
City:  Samsun, Samsun, Turkey
Name:Carsamba
ICAO / IATA:LTFH / SZF

Details
Type:Airport (Aerodrome, Airfield)
Latitude:41°15'16"N (41.254481)
Longitude:36°34'02"E (36.567106)
Datum:WGS 1984
Elevation:18 ft (5 m)
Runways:1
Longest:9843 × 148 ft (3000 × 45 m)

Time
Timezone:UTC+3 (DST+5)
Local Time:

Weather
METAR:LTFH  102350Z 10005KT 9999 SCT036 BKN100 11/07 Q1002 NOSIG
TAF:LTFH  (expired)

Related Locations
Nearby:
Farthest:NEMO: 11330 mi / 18233 km
Pacific Ocean [Oceanic Pole of Inaccessibility (Point Nemo)]

Find:

   beyond  
but within

Other Information
Maps:
Sources:

  


 


Great Circle Mapper   Great Circle Mapper
Great Circle Mapper FAQ   Great Circle Mapper FAQ
  Karl's Home Page
KLSē   KLSē Home
   GC on Facebook
Airlines of the World   Airlines of the World
Donate via PayPal


Copyright © 2004-2018, Karl L. Swartz. All rights reserved.
All trademarks mentioned herein belong to their respective owners.

Please see credits for attribution and copyright information.

Karl Swartz <karl@kls2.com>
  Powered by FreeBSD
Valid HTML 4.01!
Labeled with ICRA
hCard Microformat
Geo Microformat